createdAt,value
2022-08-17T00:00:51.886Z,19.34
2022-08-17T00:03:31.674Z,19.32
2022-08-17T00:06:07.251Z,19.33
2022-08-17T00:08:40.705Z,19.33
2022-08-17T00:11:11.058Z,19.34
2022-08-17T00:13:44.481Z,19.34
2022-08-17T00:16:15.756Z,19.38
2022-08-17T00:19:06.830Z,19.40
2022-08-17T00:22:31.234Z,19.39
2022-08-17T00:24:40.916Z,19.41
2022-08-17T00:27:10.793Z,19.41
2022-08-17T00:29:40.641Z,19.41
2022-08-17T00:33:12.681Z,19.45
2022-08-17T00:35:11.549Z,19.47
2022-08-17T00:37:43.853Z,19.52
2022-08-17T00:40:18.221Z,19.55
2022-08-17T00:42:50.976Z,19.55
2022-08-17T00:45:23.443Z,19.52
2022-08-17T00:47:53.286Z,19.43
2022-08-17T00:50:25.701Z,19.42
2022-08-17T00:53:00.996Z,19.41
2022-08-17T00:55:38.873Z,19.43
2022-08-17T00:58:09.716Z,19.44
2022-08-17T01:00:44.814Z,19.40
2022-08-17T01:03:19.614Z,19.45
2022-08-17T01:05:57.658Z,19.44
2022-08-17T01:08:31.308Z,19.49
2022-08-17T01:11:05.531Z,19.49
2022-08-17T01:13:40.995Z,19.52
2022-08-17T01:16:17.501Z,19.52
2022-08-17T01:18:51.430Z,19.50
2022-08-17T01:21:30.703Z,19.47
2022-08-17T01:24:05.561Z,19.45
2022-08-17T01:26:36.089Z,19.47
2022-08-17T01:29:08.472Z,19.47
2022-08-17T01:31:46.107Z,19.45
2022-08-17T01:34:18.569Z,19.47
2022-08-17T01:36:51.464Z,19.44
2022-08-17T01:39:30.520Z,19.36
2022-08-17T01:42:07.677Z,19.45
2022-08-17T01:44:40.351Z,19.38
2022-08-17T01:47:12.500Z,19.31
2022-08-17T01:49:42.818Z,19.27
2022-08-17T01:52:14.430Z,19.26
2022-08-17T01:54:50.138Z,19.28
2022-08-17T01:57:23.071Z,19.32
2022-08-17T01:59:53.144Z,19.27
2022-08-17T02:02:31.318Z,19.09
2022-08-17T02:05:01.586Z,18.99
2022-08-17T02:07:31.824Z,18.89
2022-08-17T02:10:22.213Z,18.80
2022-08-17T02:12:52.304Z,18.67
2022-08-17T02:15:22.680Z,18.53
2022-08-17T02:17:54.796Z,18.50
2022-08-17T02:20:42.107Z,18.35
2022-08-17T02:23:15.420Z,18.14
2022-08-17T02:25:50.409Z,18.01
2022-08-17T02:28:21.267Z,17.97
2022-08-17T02:31:00.789Z,18.01
2022-08-17T02:33:42.955Z,17.92
2022-08-17T02:36:15.468Z,17.90
2022-08-17T02:38:46.698Z,17.95
2022-08-17T02:41:20.081Z,17.95
2022-08-17T02:43:50.517Z,17.96
2022-08-17T02:46:20.474Z,17.98
2022-08-17T02:48:50.704Z,17.96
2022-08-17T02:51:20.779Z,17.99
2022-08-17T02:53:50.667Z,17.96
2022-08-17T02:56:23.310Z,17.98
2022-08-17T02:58:52.984Z,18.03
2022-08-17T03:01:22.823Z,18.05
2022-08-17T03:03:53.015Z,18.08
2022-08-17T03:06:22.716Z,18.05
2022-08-17T03:08:52.604Z,18.04
2022-08-17T03:11:25.020Z,18.05
2022-08-17T03:13:54.983Z,18.12
2022-08-17T03:16:25.123Z,18.16
2022-08-17T03:18:55.147Z,18.24
2022-08-17T03:21:25.031Z,18.28
2022-08-17T03:23:55.216Z,18.28
2022-08-17T03:26:31.148Z,18.24
2022-08-17T03:29:01.262Z,18.26
2022-08-17T03:31:32.016Z,18.25
2022-08-17T03:34:05.324Z,18.24
2022-08-17T03:36:38.402Z,18.25
2022-08-17T03:39:08.135Z,18.22
2022-08-17T03:41:43.254Z,18.24
2022-08-17T03:44:13.014Z,18.26
2022-08-17T03:46:55.153Z,18.23
2022-08-17T03:49:39.397Z,18.21
2022-08-17T03:52:22.159Z,18.24
2022-08-17T03:55:07.219Z,18.26
2022-08-17T03:57:40.171Z,18.26
2022-08-17T04:00:11.910Z,18.24
2022-08-17T04:02:41.937Z,18.18
2022-08-17T04:05:12.198Z,18.21
2022-08-17T04:07:41.921Z,18.21
2022-08-17T04:10:11.972Z,18.22
2022-08-17T04:12:51.152Z,18.26
2022-08-17T04:15:21.594Z,18.23
2022-08-17T04:17:51.795Z,18.21
2022-08-17T04:20:24.385Z,18.22
2022-08-17T04:23:02.357Z,18.27
2022-08-17T04:25:37.640Z,18.27
2022-08-17T04:28:15.759Z,18.29
2022-08-17T04:30:47.905Z,18.28
2022-08-17T04:33:19.861Z,18.29
2022-08-17T04:35:52.152Z,18.31
2022-08-17T04:38:23.177Z,18.35
2022-08-17T04:41:06.157Z,18.35
2022-08-17T04:43:43.307Z,18.36
2022-08-17T04:46:17.566Z,18.33
2022-08-17T04:48:49.695Z,18.26
2022-08-17T04:51:22.962Z,18.29
2022-08-17T04:53:55.333Z,18.27
2022-08-17T04:56:28.015Z,18.26
2022-08-17T04:59:15.688Z,18.26
2022-08-17T05:01:47.855Z,18.28
2022-08-17T05:04:33.137Z,18.30
2022-08-17T05:07:05.477Z,18.35
2022-08-17T05:09:38.057Z,18.32
2022-08-17T05:12:11.041Z,18.34
2022-08-17T05:14:44.478Z,18.35
2022-08-17T05:17:14.043Z,18.38
2022-08-17T05:19:46.564Z,18.43
2022-08-17T05:22:18.650Z,18.43
2022-08-17T05:24:53.905Z,18.44
2022-08-17T05:27:25.630Z,18.49
2022-08-17T05:30:05.433Z,18.47
2022-08-17T05:32:47.965Z,18.47
2022-08-17T05:35:18.067Z,18.49
2022-08-17T05:37:47.787Z,18.49
2022-08-17T05:40:19.051Z,18.50
2022-08-17T05:42:50.020Z,18.57
2022-08-17T05:45:54.417Z,18.57
2022-08-17T05:48:18.263Z,18.57
2022-08-17T05:50:54.868Z,18.52
2022-08-17T05:53:36.274Z,18.51
2022-08-17T05:56:29.324Z,18.50
2022-08-17T05:59:08.128Z,18.48
2022-08-17T06:01:54.747Z,18.48
2022-08-17T06:04:36.859Z,18.50
2022-08-17T06:07:17.495Z,18.45
2022-08-17T06:09:55.769Z,18.39
2022-08-17T06:12:47.408Z,18.41
2022-08-17T06:15:36.992Z,18.43
2022-08-17T06:18:18.899Z,18.49
2022-08-17T06:20:55.199Z,18.58
2022-08-17T06:23:35.991Z,18.57
2022-08-17T06:26:14.553Z,18.64
2022-08-17T06:28:51.084Z,18.63
2022-08-17T06:31:28.024Z,18.70
2022-08-17T06:34:04.057Z,18.76
2022-08-17T06:36:49.765Z,18.74
2022-08-17T06:39:36.367Z,18.77
2022-08-17T06:43:01.967Z,18.87
2022-08-17T06:45:13.560Z,19.00
2022-08-17T06:47:50.579Z,19.07
2022-08-17T06:50:35.890Z,19.13
2022-08-17T06:53:18.046Z,19.20
2022-08-17T06:55:53.304Z,19.22
2022-08-17T06:58:29.930Z,19.26
2022-08-17T07:01:01.843Z,19.29
2022-08-17T07:03:40.858Z,19.25
2022-08-17T07:06:17.871Z,19.23
2022-08-17T07:08:56.237Z,19.26
2022-08-17T07:11:37.730Z,19.31
2022-08-17T07:14:20.639Z,19.37
2022-08-17T07:16:53.422Z,19.35
2022-08-17T07:19:30.811Z,19.36
2022-08-17T07:22:14.550Z,19.30
2022-08-17T07:24:49.480Z,19.30
2022-08-17T07:27:22.230Z,19.32
2022-08-17T07:29:56.695Z,19.30
2022-08-17T07:32:32.492Z,19.35
2022-08-17T07:35:16.260Z,19.36
2022-08-17T07:37:54.241Z,19.42
2022-08-17T07:40:37.027Z,19.47
2022-08-17T07:43:22.244Z,19.51
2022-08-17T07:46:30.617Z,19.56
2022-08-17T07:49:19.246Z,19.48
2022-08-17T07:52:13.522Z,19.45
2022-08-17T07:54:55.336Z,19.47
2022-08-17T07:57:43.160Z,19.54
2022-08-17T08:00:31.404Z,19.63
2022-08-17T08:03:16.901Z,19.73
2022-08-17T08:05:55.413Z,19.91
2022-08-17T08:08:35.876Z,20.12
2022-08-17T08:11:16.995Z,20.28
2022-08-17T08:13:50.096Z,20.34
2022-08-17T08:16:32.584Z,20.20
2022-08-17T08:19:08.632Z,20.25
2022-08-17T08:21:49.427Z,20.25
2022-08-17T08:24:41.363Z,20.24
2022-08-17T08:27:31.407Z,20.38
2022-08-17T08:30:12.609Z,20.48
2022-08-17T08:33:17.455Z,20.62
2022-08-17T08:35:55.221Z,20.57
2022-08-17T08:38:40.068Z,20.54
2022-08-17T08:41:25.909Z,20.45
2022-08-17T08:44:11.405Z,20.29
2022-08-17T08:46:52.235Z,20.19
2022-08-17T08:50:09.498Z,20.15
2022-08-17T08:53:14.536Z,20.05
2022-08-17T08:55:52.419Z,20.03
2022-08-17T08:58:41.956Z,20.02
2022-08-17T09:01:24.042Z,19.91
2022-08-17T09:04:24.257Z,19.90
2022-08-17T09:07:17.375Z,19.93
2022-08-17T09:10:01.724Z,19.92
2022-08-17T09:12:45.448Z,20.02
2022-08-17T09:15:18.308Z,20.03
2022-08-17T09:18:32.354Z,19.91
2022-08-17T09:20:53.907Z,19.98
2022-08-17T09:23:36.945Z,19.94
2022-08-17T09:26:14.846Z,19.92
2022-08-17T09:28:49.909Z,19.93
2022-08-17T09:31:25.997Z,19.89
2022-08-17T09:34:05.899Z,19.74
2022-08-17T09:36:43.597Z,19.72
2022-08-17T09:39:18.777Z,19.81
2022-08-17T09:41:54.777Z,19.77
2022-08-17T09:44:31.474Z,19.65
2022-08-17T09:47:08.358Z,19.67
2022-08-17T09:49:49.641Z,19.71
2022-08-17T09:52:23.227Z,19.72
2022-08-17T09:54:55.258Z,19.73
2022-08-17T09:57:40.923Z,19.74
2022-08-17T10:00:28.005Z,19.61
2022-08-17T10:03:19.933Z,19.77
2022-08-17T10:06:00.621Z,19.67
2022-08-17T10:08:39.634Z,19.71
2022-08-17T10:11:19.480Z,19.52
2022-08-17T10:13:57.179Z,19.58
2022-08-17T10:16:39.075Z,19.62
2022-08-17T10:19:18.814Z,19.64
2022-08-17T10:22:14.527Z,19.73
2022-08-17T10:25:22.480Z,19.78
2022-08-17T10:27:57.591Z,19.80
2022-08-17T10:30:36.328Z,19.73
2022-08-17T10:33:15.636Z,19.83
2022-08-17T10:35:53.070Z,19.88
2022-08-17T10:38:49.818Z,20.03
2022-08-17T10:41:30.883Z,20.07
2022-08-17T10:44:37.374Z,20.33
2022-08-17T10:47:09.295Z,20.27
2022-08-17T10:49:48.058Z,20.32
2022-08-17T10:52:50.275Z,20.41
2022-08-17T10:55:25.880Z,20.38
2022-08-17T10:58:21.219Z,20.65
2022-08-17T11:01:12.990Z,20.75
2022-08-17T11:04:06.978Z,20.76
2022-08-17T11:06:43.543Z,20.83
2022-08-17T11:09:31.591Z,20.73
2022-08-17T11:12:31.125Z,20.81
2022-08-17T11:15:31.423Z,20.75
2022-08-17T11:18:24.411Z,20.83
2022-08-17T11:21:17.775Z,20.85
2022-08-17T11:24:05.141Z,20.83
2022-08-17T11:26:42.281Z,20.83
2022-08-17T11:29:24.979Z,20.79
2022-08-17T11:32:13.698Z,20.75
2022-08-17T11:34:46.220Z,20.76
2022-08-17T11:37:40.408Z,20.75
2022-08-17T11:40:20.871Z,20.55
2022-08-17T11:43:15.482Z,20.49
2022-08-17T11:46:17.415Z,20.46
2022-08-17T11:49:13.541Z,20.35
2022-08-17T11:52:15.477Z,20.33
2022-08-17T11:54:49.213Z,20.25
2022-08-17T11:58:01.898Z,20.24
2022-08-17T12:00:56.676Z,20.15
2022-08-17T12:03:55.465Z,20.11
2022-08-17T12:06:46.914Z,20.11
2022-08-17T12:09:24.659Z,20.19
2022-08-17T12:12:12.500Z,20.17
2022-08-17T12:15:09.644Z,20.11
2022-08-17T12:17:46.820Z,20.12
2022-08-17T12:20:25.136Z,20.16
2022-08-17T12:23:06.894Z,20.15
2022-08-17T12:26:09.945Z,20.04
2022-08-17T12:29:18.283Z,20.12
2022-08-17T12:32:26.609Z,20.04
2022-08-17T12:34:57.919Z,20.00
2022-08-17T12:37:38.190Z,20.04
2022-08-17T12:40:31.011Z,20.03
2022-08-17T12:43:06.668Z,20.02
2022-08-17T12:45:42.053Z,20.03
2022-08-17T12:48:15.418Z,19.92
2022-08-17T12:50:47.798Z,19.97
2022-08-17T12:53:25.205Z,19.84
2022-08-17T12:55:56.796Z,19.79
2022-08-17T12:58:29.409Z,19.95
2022-08-17T13:01:05.398Z,19.88
2022-08-17T13:03:44.057Z,19.87
2022-08-17T13:06:31.127Z,19.97
2022-08-17T13:09:12.884Z,19.92
2022-08-17T13:11:50.755Z,19.84
2022-08-17T13:14:21.591Z,19.86
2022-08-17T13:16:56.119Z,20.00
2022-08-17T13:19:40.385Z,19.99
2022-08-17T13:22:15.519Z,20.03
2022-08-17T13:24:56.911Z,20.09
2022-08-17T13:27:32.390Z,20.00
2022-08-17T13:30:10.551Z,20.09
2022-08-17T13:32:45.100Z,20.16
2022-08-17T13:35:43.082Z,20.09
2022-08-17T13:38:20.021Z,20.19
2022-08-17T13:40:55.642Z,20.25
2022-08-17T13:43:45.705Z,20.39
2022-08-17T13:46:22.660Z,20.61
2022-08-17T13:49:05.506Z,20.61
2022-08-17T13:51:46.696Z,20.70
2022-08-17T13:54:31.806Z,20.66
2022-08-17T13:57:08.030Z,20.60
2022-08-17T13:59:54.707Z,20.60
2022-08-17T14:02:28.592Z,20.62
2022-08-17T14:05:00.881Z,20.69
2022-08-17T14:07:40.090Z,20.70
2022-08-17T14:10:15.648Z,20.73
2022-08-17T14:12:50.331Z,20.86
2022-08-17T14:15:23.613Z,20.89
2022-08-17T14:18:13.469Z,21.13
2022-08-17T14:20:43.231Z,21.01
2022-08-17T14:23:13.485Z,20.90
2022-08-17T14:25:43.344Z,21.01
2022-08-17T14:28:15.838Z,21.22
2022-08-17T14:30:46.544Z,21.36
2022-08-17T14:33:25.727Z,21.40
2022-08-17T14:35:56.177Z,21.24
2022-08-17T14:38:28.091Z,21.36
2022-08-17T14:40:57.983Z,21.34
2022-08-17T14:43:36.034Z,21.28
2022-08-17T14:46:05.947Z,21.35
2022-08-17T14:48:40.688Z,21.35
2022-08-17T14:51:10.722Z,21.29
2022-08-17T14:53:46.117Z,21.23
2022-08-17T14:56:16.253Z,21.22
2022-08-17T14:58:49.230Z,21.28
2022-08-17T15:01:19.153Z,21.24
2022-08-17T15:03:48.996Z,21.42
2022-08-17T15:06:19.878Z,21.43
2022-08-17T15:08:49.788Z,21.40
2022-08-17T15:11:21.245Z,21.38
2022-08-17T15:13:53.795Z,21.37
2022-08-17T15:16:27.163Z,21.19
2022-08-17T15:18:56.756Z,21.25
2022-08-17T15:21:34.014Z,21.21
2022-08-17T15:24:05.607Z,21.16
2022-08-17T15:26:35.513Z,21.24
2022-08-17T15:29:09.832Z,21.33
2022-08-17T15:31:44.682Z,21.22
2022-08-17T15:34:17.467Z,21.22
2022-08-17T15:36:49.835Z,21.24
2022-08-17T15:39:19.933Z,21.14
2022-08-17T15:42:12.295Z,21.21
2022-08-17T15:44:45.522Z,21.24
2022-08-17T15:47:16.996Z,21.30
2022-08-17T15:49:49.198Z,21.20
2022-08-17T15:52:22.615Z,21.20
2022-08-17T15:54:53.503Z,21.18
2022-08-17T16:07:35.369Z,20.89
2022-08-17T16:10:06.268Z,20.72
2022-08-17T16:12:39.736Z,20.61
2022-08-17T16:15:10.754Z,20.48
2022-08-17T16:17:44.394Z,20.46
2022-08-17T16:20:20.421Z,20.51
2022-08-17T16:22:52.638Z,20.54
2022-08-17T16:25:47.110Z,20.47
2022-08-17T16:28:20.363Z,20.41
2022-08-17T16:30:50.344Z,20.37
2022-08-17T16:33:22.806Z,20.26
2022-08-17T16:35:52.908Z,20.23
2022-08-17T16:38:22.742Z,20.19
2022-08-17T16:40:52.457Z,20.13
2022-08-17T16:43:22.209Z,20.16
2022-08-17T16:45:52.399Z,20.12
2022-08-17T16:48:25.634Z,20.05
2022-08-17T16:51:03.146Z,19.97
2022-08-17T16:53:40.121Z,19.89
2022-08-17T16:56:09.868Z,19.80
2022-08-17T16:58:41.127Z,19.76
2022-08-17T17:01:14.368Z,19.68
2022-08-17T17:03:54.064Z,19.67
2022-08-17T17:06:38.747Z,19.65
2022-08-17T17:09:14.579Z,19.65
2022-08-17T17:11:47.311Z,19.61
2022-08-17T17:14:25.896Z,19.54
2022-08-17T17:17:06.556Z,19.53
2022-08-17T17:19:53.963Z,19.52
2022-08-17T17:33:22.643Z,19.31
2022-08-17T17:36:04.976Z,19.30
2022-08-17T17:38:46.143Z,19.15
2022-08-17T17:41:26.163Z,19.08
2022-08-17T17:44:05.614Z,19.05
2022-08-17T17:46:49.462Z,19.01
2022-08-17T17:49:23.665Z,19.04
2022-08-17T17:55:21.271Z,18.98
2022-08-17T17:58:10.524Z,19.01
2022-08-17T18:00:47.529Z,18.97
2022-08-17T18:03:30.634Z,18.99
2022-08-17T18:06:17.550Z,18.99
2022-08-17T18:09:08.807Z,18.91
2022-08-17T18:12:04.884Z,18.90
2022-08-17T18:14:54.297Z,18.86
2022-08-17T18:17:24.489Z,18.84
2022-08-17T18:19:57.895Z,18.78
2022-08-17T18:22:34.457Z,18.76
2022-08-17T18:25:45.647Z,18.77
2022-08-17T18:28:27.229Z,18.78
2022-08-17T18:31:10.728Z,18.77
2022-08-17T18:33:41.281Z,18.79
2022-08-17T18:36:17.150Z,18.79
2022-08-17T18:38:47.125Z,18.81
2022-08-17T18:41:37.150Z,18.79
2022-08-17T18:44:29.100Z,18.77
2022-08-17T18:47:16.861Z,18.74
2022-08-17T18:49:50.078Z,18.72
2022-08-17T18:52:26.990Z,18.68
2022-08-17T18:55:11.709Z,18.69
2022-08-17T18:57:46.821Z,18.69
2022-08-17T19:00:21.408Z,18.67
2022-08-17T19:02:56.498Z,18.70
2022-08-17T19:05:41.539Z,18.72
2022-08-17T19:08:25.416Z,18.69
2022-08-17T19:11:00.725Z,18.69
2022-08-17T19:13:41.655Z,18.68
2022-08-17T19:16:18.151Z,18.68
2022-08-17T19:18:52.498Z,18.70
2022-08-17T19:21:31.535Z,18.69
2022-08-17T19:24:08.492Z,18.67
2022-08-17T19:26:53.267Z,18.68
2022-08-17T19:29:35.367Z,18.69
2022-08-17T19:32:07.418Z,18.67
2022-08-17T19:34:44.874Z,18.68
2022-08-17T19:37:25.995Z,18.70
2022-08-17T19:40:05.470Z,18.69
2022-08-17T19:42:47.567Z,18.70
2022-08-17T19:45:35.896Z,18.68
2022-08-17T19:48:16.789Z,18.66
2022-08-17T19:50:53.283Z,18.60
2022-08-17T19:54:01.779Z,18.59
2022-08-17T19:56:35.578Z,18.59
2022-08-17T19:59:15.851Z,18.58
2022-08-17T20:01:54.297Z,18.56
2022-08-17T20:04:37.397Z,18.52
2022-08-17T20:07:17.202Z,18.54
2022-08-17T20:09:51.748Z,18.48
2022-08-17T20:12:24.425Z,18.43
2022-08-17T20:14:58.857Z,18.42
2022-08-17T20:17:40.690Z,18.40
2022-08-17T20:20:24.118Z,18.42
2022-08-17T20:23:06.513Z,18.40
2022-08-17T20:25:42.278Z,18.35
2022-08-17T20:28:22.586Z,18.33
2022-08-17T20:30:52.510Z,18.33
2022-08-17T20:33:39.867Z,18.34
2022-08-17T20:36:20.686Z,18.32
2022-08-17T20:38:53.895Z,18.33
2022-08-17T20:41:25.451Z,18.32
2022-08-17T20:44:07.369Z,18.32
2022-08-17T20:47:06.282Z,18.29
2022-08-17T20:49:52.039Z,18.26
2022-08-17T20:52:50.918Z,18.22
2022-08-17T20:55:55.691Z,18.17
2022-08-17T20:58:48.606Z,18.12
2022-08-17T21:01:26.950Z,18.06
2022-08-17T21:04:08.825Z,18.02
2022-08-17T21:07:17.414Z,18.00
2022-08-17T21:09:49.077Z,17.95
2022-08-17T21:12:43.267Z,17.92
2022-08-17T21:15:40.019Z,17.87
2022-08-17T21:18:21.230Z,17.84
2022-08-17T21:21:17.564Z,17.80
2022-08-17T21:24:17.272Z,17.78
2022-08-17T21:27:02.033Z,17.78
2022-08-17T21:29:40.486Z,17.77
2022-08-17T21:32:23.738Z,17.77
2022-08-17T21:35:09.212Z,17.74
2022-08-17T21:37:45.463Z,17.69
2022-08-17T21:40:30.987Z,17.62
2022-08-17T21:43:08.890Z,17.57
2022-08-17T21:45:41.356Z,17.52
2022-08-17T21:48:18.651Z,17.48
2022-08-17T21:51:01.801Z,17.44
2022-08-17T21:53:42.251Z,17.40
2022-08-17T21:56:31.435Z,17.38
2022-08-17T21:59:07.466Z,17.35
2022-08-17T22:01:43.135Z,17.33
2022-08-17T22:04:22.360Z,17.31
2022-08-17T22:06:57.218Z,17.32
2022-08-17T22:09:38.773Z,17.28
2022-08-17T22:12:14.520Z,17.24
2022-08-17T22:14:52.198Z,17.20
2022-08-17T22:17:28.622Z,17.20
2022-08-17T22:20:06.948Z,17.18
2022-08-17T22:23:01.511Z,17.14
2022-08-17T22:25:29.923Z,17.12
2022-08-17T22:28:09.442Z,17.09
2022-08-17T22:30:41.098Z,17.07
2022-08-17T22:33:38.389Z,17.04
2022-08-17T22:36:14.573Z,17.02
2022-08-17T22:38:45.860Z,17.03
2022-08-17T22:41:51.429Z,17.02
2022-08-17T22:44:32.094Z,17.02
2022-08-17T22:47:11.244Z,17.03
2022-08-17T22:49:53.167Z,17.04
2022-08-17T22:53:01.209Z,17.06
2022-08-17T22:55:52.746Z,17.07
2022-08-17T22:58:41.741Z,17.10
2022-08-17T23:01:36.375Z,17.10
2022-08-17T23:04:09.876Z,17.11
2022-08-17T23:06:42.422Z,17.13
2022-08-17T23:09:12.530Z,17.16
2022-08-17T23:11:50.031Z,17.15
2022-08-17T23:14:22.586Z,17.15
2022-08-17T23:16:55.164Z,17.16
2022-08-17T23:19:24.958Z,17.15
2022-08-17T23:21:55.499Z,17.14
2022-08-17T23:24:28.809Z,17.11
2022-08-17T23:27:02.307Z,17.09
2022-08-17T23:29:32.273Z,17.07
2022-08-17T23:32:04.988Z,17.08
2022-08-17T23:34:37.141Z,17.06
2022-08-17T23:37:09.643Z,17.06
2022-08-17T23:39:39.713Z,17.07
2022-08-17T23:42:12.335Z,17.09
2022-08-17T23:44:44.847Z,17.09
2022-08-17T23:47:18.012Z,17.10
2022-08-17T23:49:48.692Z,17.13
2022-08-17T23:52:28.102Z,17.14
2022-08-17T23:54:57.936Z,17.16
2022-08-17T23:57:33.601Z,17.17
